createdAt,value
2022-07-26T00:01:06.172Z,96.30
2022-07-26T00:02:39.097Z,96.60
2022-07-26T00:04:20.028Z,96.70
2022-07-26T00:05:52.813Z,96.60
2022-07-26T00:07:25.552Z,96.10
2022-07-26T00:08:58.458Z,96.30
2022-07-26T00:10:30.258Z,96.50
2022-07-26T00:12:03.033Z,96.40
2022-07-26T00:13:36.511Z,96.30
2022-07-26T00:15:11.880Z,96.40
2022-07-26T00:16:46.331Z,96.40
2022-07-26T00:18:19.235Z,95.90
2022-07-26T00:19:52.075Z,96.10
2022-07-26T00:21:25.116Z,95.90
2022-07-26T00:22:56.951Z,96.20
2022-07-26T00:24:33.672Z,95.70
2022-07-26T00:26:08.377Z,95.80
2022-07-26T00:27:41.183Z,95.80
2022-07-26T00:29:13.937Z,95.50
2022-07-26T00:30:47.355Z,95.90
2022-07-26T00:32:21.429Z,95.70
2022-07-26T00:33:54.176Z,95.80
2022-07-26T00:35:27.395Z,95.80
2022-07-26T00:37:00.114Z,95.80
2022-07-26T00:38:32.889Z,95.70
2022-07-26T00:40:06.016Z,95.80
2022-07-26T00:41:41.782Z,95.70
2022-07-26T00:43:15.719Z,95.70
2022-07-26T00:44:48.955Z,96.00
2022-07-26T00:46:21.734Z,95.80
2022-07-26T00:47:56.142Z,95.80
2022-07-26T00:49:28.015Z,95.70
2022-07-26T00:51:00.824Z,95.80
2022-07-26T00:52:32.676Z,95.80
2022-07-26T00:54:06.269Z,96.20
2022-07-26T00:55:39.096Z,95.90
2022-07-26T00:57:12.430Z,96.00
2022-07-26T00:58:45.588Z,96.10
2022-07-26T01:00:20.459Z,95.70
2022-07-26T01:01:53.414Z,95.50
2022-07-26T01:03:30.331Z,95.50
2022-07-26T01:05:10.008Z,95.50
2022-07-26T01:06:43.252Z,95.90
2022-07-26T01:08:16.075Z,95.50
2022-07-26T01:09:48.844Z,95.50
2022-07-26T01:11:21.631Z,95.40
2022-07-26T01:12:54.393Z,95.50
2022-07-26T01:14:27.352Z,96.00
2022-07-26T01:16:00.143Z,95.80
2022-07-26T01:17:31.998Z,95.70
2022-07-26T01:19:10.348Z,95.80
2022-07-26T01:20:44.604Z,95.50
2022-07-26T01:22:18.679Z,95.60
2022-07-26T01:23:50.519Z,95.50
2022-07-26T01:25:30.767Z,95.50
2022-07-26T01:27:03.533Z,96.20
2022-07-26T01:28:38.510Z,95.90
2022-07-26T01:30:13.424Z,96.30
2022-07-26T01:31:46.224Z,95.80
2022-07-26T01:33:19.089Z,96.20
2022-07-26T01:34:51.839Z,96.00
2022-07-26T01:36:24.639Z,95.80
2022-07-26T01:37:58.743Z,95.70
2022-07-26T01:39:31.522Z,95.60
2022-07-26T01:41:04.313Z,95.70
2022-07-26T01:42:40.593Z,95.70
2022-07-26T01:44:13.530Z,95.70
2022-07-26T01:45:46.755Z,96.00
2022-07-26T01:47:19.532Z,95.90
2022-07-26T01:48:51.839Z,95.90
2022-07-26T01:50:24.623Z,96.60
2022-07-26T01:51:57.397Z,96.70
2022-07-26T01:53:31.639Z,96.30
2022-07-26T01:55:04.044Z,96.10
2022-07-26T01:56:36.952Z,96.10
2022-07-26T01:58:08.991Z,96.20
2022-07-26T01:59:41.739Z,96.40
2022-07-26T02:01:14.542Z,96.10
2022-07-26T02:02:47.519Z,96.30
2022-07-26T02:04:38.081Z,96.40
2022-07-26T02:06:10.838Z,96.50
2022-07-26T02:07:46.871Z,96.40
2022-07-26T02:09:21.139Z,96.40
2022-07-26T02:11:04.053Z,96.30
2022-07-26T02:12:36.163Z,96.50
2022-07-26T02:14:09.349Z,96.20
2022-07-26T02:15:42.830Z,96.30
2022-07-26T02:17:15.895Z,96.20
2022-07-26T02:18:48.625Z,96.40
2022-07-26T02:20:20.660Z,96.20
2022-07-26T02:21:53.480Z,96.10
2022-07-26T02:23:27.059Z,96.00
2022-07-26T02:25:05.036Z,95.90
2022-07-26T02:26:38.448Z,95.90
2022-07-26T02:28:10.284Z,96.00
2022-07-26T02:29:43.363Z,96.00
2022-07-26T02:31:16.144Z,95.90
2022-07-26T02:32:48.070Z,95.90
2022-07-26T02:34:21.316Z,95.90
2022-07-26T02:35:54.098Z,96.10
2022-07-26T02:37:26.874Z,96.10
2022-07-26T02:38:58.647Z,96.10
2022-07-26T02:40:33.492Z,96.30
2022-07-26T02:42:06.322Z,96.30
2022-07-26T02:43:38.124Z,96.20
2022-07-26T02:45:11.626Z,96.20
2022-07-26T02:46:44.418Z,96.30
2022-07-26T02:48:17.212Z,96.60
2022-07-26T02:49:49.058Z,96.70
2022-07-26T02:51:21.896Z,96.60
2022-07-26T02:52:55.275Z,96.80
2022-07-26T02:54:28.022Z,97.00
2022-07-26T02:56:02.115Z,96.90
2022-07-26T02:57:45.276Z,97.90
2022-07-26T02:59:19.488Z,98.20
2022-07-26T03:00:52.244Z,97.90
2022-07-26T03:02:25.019Z,97.90
2022-07-26T03:03:58.092Z,98.00
2022-07-26T03:05:30.880Z,98.60
2022-07-26T03:07:02.667Z,98.40
2022-07-26T03:08:36.872Z,98.60
2022-07-26T03:10:10.537Z,98.60
2022-07-26T03:11:44.637Z,98.40
2022-07-26T03:13:17.413Z,98.20
2022-07-26T03:14:49.232Z,98.50
2022-07-26T03:16:24.894Z,98.40
2022-07-26T03:18:01.947Z,98.70
2022-07-26T03:19:33.753Z,98.90
2022-07-26T03:21:07.062Z,98.60
2022-07-26T03:22:39.825Z,98.60
2022-07-26T03:24:12.595Z,98.30
2022-07-26T03:25:45.342Z,98.40
2022-07-26T03:27:19.441Z,98.90
2022-07-26T03:28:52.803Z,99.10
2022-07-26T03:30:26.615Z,98.80
2022-07-26T03:31:59.449Z,98.80
2022-07-26T03:33:32.191Z,99.30
2022-07-26T03:35:05.656Z,99.30
2022-07-26T03:36:39.078Z,99.40
2022-07-26T03:38:11.844Z,99.60
2022-07-26T03:39:44.671Z,99.40
2022-07-26T03:41:17.411Z,99.70
2022-07-26T03:42:51.515Z,99.30
2022-07-26T03:44:24.340Z,99.70
2022-07-26T03:45:57.202Z,99.40
2022-07-26T03:47:30.003Z,99.40
2022-07-26T03:49:02.792Z,99.50
2022-07-26T03:50:35.672Z,99.20
2022-07-26T03:52:10.711Z,99.40
2022-07-26T03:53:43.442Z,99.60
2022-07-26T03:55:34.096Z,99.70
2022-07-26T03:57:05.903Z,99.90
2022-07-26T03:58:39.984Z,99.90
2022-07-26T04:00:13.855Z,99.90
2022-07-26T04:01:48.335Z,99.90
2022-07-26T04:03:22.547Z,99.90
2022-07-26T04:04:55.300Z,99.90
2022-07-26T04:06:29.024Z,99.90
2022-07-26T04:08:01.007Z,99.90
2022-07-26T04:09:34.946Z,99.90
2022-07-26T04:11:06.862Z,99.90
2022-07-26T04:12:39.950Z,99.90
2022-07-26T04:14:14.051Z,99.90
2022-07-26T04:15:45.949Z,99.90
2022-07-26T04:17:18.794Z,99.90
2022-07-26T04:18:51.768Z,99.90
2022-07-26T04:20:24.523Z,99.90
2022-07-26T04:21:57.259Z,99.90
2022-07-26T04:23:29.056Z,99.90
2022-07-26T04:25:02.243Z,99.90
2022-07-26T04:26:35.003Z,99.90
2022-07-26T04:28:06.908Z,99.90
2022-07-26T04:29:42.122Z,99.90
2022-07-26T04:31:14.146Z,99.90
2022-07-26T04:32:49.931Z,99.90
2022-07-26T04:34:22.673Z,99.90
2022-07-26T04:35:55.803Z,99.90
2022-07-26T04:37:28.559Z,99.90
2022-07-26T04:39:01.318Z,99.90
2022-07-26T04:40:33.566Z,99.90
2022-07-26T04:42:06.506Z,99.90
2022-07-26T04:43:39.295Z,99.90
2022-07-26T04:45:14.483Z,99.90
2022-07-26T04:46:47.272Z,99.90
2022-07-26T04:48:20.347Z,99.90
2022-07-26T04:49:53.092Z,99.90
2022-07-26T04:51:26.517Z,99.90
2022-07-26T04:52:59.440Z,99.90
2022-07-26T04:54:32.206Z,99.90
2022-07-26T04:56:05.836Z,99.90
2022-07-26T04:57:38.053Z,99.90
2022-07-26T04:59:10.819Z,99.90
2022-07-26T05:01:08.854Z,99.90
2022-07-26T05:02:38.090Z,99.90
2022-07-26T05:04:11.428Z,99.90
2022-07-26T05:05:44.328Z,99.90
2022-07-26T05:07:17.064Z,99.90
2022-07-26T05:08:50.003Z,99.90
2022-07-26T05:10:28.615Z,99.90
2022-07-26T05:12:01.355Z,99.90
2022-07-26T05:13:34.203Z,99.90
2022-07-26T05:15:13.656Z,99.90
2022-07-26T05:16:48.560Z,99.90
2022-07-26T05:18:21.356Z,99.90
2022-07-26T05:19:58.845Z,99.90
2022-07-26T05:21:35.609Z,99.90
2022-07-26T05:23:08.360Z,99.90
2022-07-26T05:24:41.100Z,99.90
2022-07-26T05:26:13.878Z,99.90
2022-07-26T05:27:46.696Z,99.90
2022-07-26T05:29:19.483Z,99.90
2022-07-26T05:30:52.475Z,99.90
2022-07-26T05:32:27.976Z,99.90
2022-07-26T05:34:00.744Z,99.90
2022-07-26T05:35:33.491Z,99.90
2022-07-26T05:37:05.279Z,99.90
2022-07-26T05:38:38.535Z,99.90
2022-07-26T05:40:12.111Z,99.90
2022-07-26T05:41:45.081Z,99.90
2022-07-26T05:43:17.832Z,99.90
2022-07-26T05:44:50.589Z,99.90
2022-07-26T05:46:23.624Z,99.90
2022-07-26T05:47:57.809Z,99.90
2022-07-26T05:49:40.269Z,99.90
2022-07-26T05:51:13.488Z,99.90
2022-07-26T05:52:46.704Z,99.90
2022-07-26T05:54:20.969Z,99.90
2022-07-26T05:55:55.900Z,99.90
2022-07-26T05:57:28.650Z,99.90
2022-07-26T05:59:01.596Z,99.90
2022-07-26T06:00:34.619Z,99.90
2022-07-26T06:02:08.294Z,99.90
2022-07-26T06:03:42.956Z,99.90
2022-07-26T06:05:16.133Z,99.90
2022-07-26T06:06:48.872Z,99.90
2022-07-26T06:08:22.200Z,99.90
2022-07-26T06:09:54.939Z,99.90
2022-07-26T06:11:27.692Z,99.90
2022-07-26T06:13:00.611Z,99.90
2022-07-26T06:14:33.404Z,99.90
2022-07-26T06:16:06.775Z,99.90
2022-07-26T06:17:41.727Z,99.90
2022-07-26T06:19:15.949Z,99.90
2022-07-26T06:20:49.690Z,99.90
2022-07-26T06:22:22.487Z,99.90
2022-07-26T06:23:55.207Z,99.90
2022-07-26T06:25:28.508Z,99.90
2022-07-26T06:27:04.988Z,99.90
2022-07-26T06:28:39.431Z,99.90
2022-07-26T06:30:13.315Z,99.90
2022-07-26T06:31:46.085Z,99.90
2022-07-26T06:33:18.949Z,99.90
2022-07-26T06:34:53.100Z,99.90
2022-07-26T06:36:30.306Z,99.90
2022-07-26T06:38:04.115Z,99.90
2022-07-26T06:39:36.919Z,99.90
2022-07-26T06:41:09.723Z,99.90
2022-07-26T06:42:42.578Z,99.90
2022-07-26T06:44:15.335Z,99.90
2022-07-26T06:45:49.244Z,99.90
2022-07-26T06:47:22.105Z,99.90
2022-07-26T06:48:56.875Z,99.90
2022-07-26T06:50:31.498Z,99.90
2022-07-26T06:52:04.512Z,99.90
2022-07-26T06:53:37.840Z,99.90
2022-07-26T06:55:12.571Z,99.90
2022-07-26T06:56:45.603Z,99.90
2022-07-26T06:58:18.355Z,99.90
2022-07-26T06:59:51.100Z,99.90
2022-07-26T07:01:55.430Z,99.90
2022-07-26T07:03:16.947Z,99.90
2022-07-26T07:04:49.794Z,99.90
2022-07-26T07:06:23.932Z,99.90
2022-07-26T07:07:56.712Z,99.90
2022-07-26T07:09:30.449Z,99.90
2022-07-26T07:11:03.336Z,99.90
2022-07-26T07:12:38.188Z,99.90
2022-07-26T07:14:11.219Z,99.90
2022-07-26T07:15:44.129Z,99.90
2022-07-26T07:17:20.618Z,99.90
2022-07-26T07:18:53.371Z,99.90
2022-07-26T07:20:28.219Z,99.90
2022-07-26T07:22:02.328Z,99.90
2022-07-26T07:23:35.105Z,99.60
2022-07-26T07:25:08.625Z,99.40
2022-07-26T07:26:41.639Z,99.00
2022-07-26T07:28:14.404Z,98.70
2022-07-26T07:29:47.151Z,99.20
2022-07-26T07:31:19.985Z,98.80
2022-07-26T07:32:55.514Z,98.00
2022-07-26T07:34:29.397Z,97.80
2022-07-26T07:36:02.171Z,98.20
2022-07-26T07:37:53.016Z,98.20
2022-07-26T07:39:27.331Z,98.30
2022-07-26T07:41:07.912Z,97.50
2022-07-26T07:42:41.051Z,97.00
2022-07-26T07:44:13.820Z,96.80
2022-07-26T07:45:48.352Z,96.60
2022-07-26T07:47:22.107Z,96.10
2022-07-26T07:48:54.935Z,96.10
2022-07-26T07:50:28.461Z,96.70
2022-07-26T07:52:01.397Z,96.50
2022-07-26T07:53:37.057Z,96.20
2022-07-26T07:57:03.535Z,96.00
2022-07-26T07:58:36.780Z,96.60
2022-07-26T08:00:12.344Z,95.90
2022-07-26T08:01:48.790Z,95.90
2022-07-26T08:03:21.625Z,95.40
2022-07-26T08:04:55.613Z,95.40
2022-07-26T08:06:32.264Z,95.30
2022-07-26T08:08:08.166Z,95.90
2022-07-26T08:09:42.877Z,96.10
2022-07-26T08:11:16.055Z,96.60
2022-07-26T08:12:51.219Z,96.10
2022-07-26T08:14:24.384Z,95.50
2022-07-26T08:15:57.344Z,94.50
2022-07-26T08:17:32.192Z,94.80
2022-07-26T08:19:07.432Z,95.40
2022-07-26T08:20:41.725Z,95.20
2022-07-26T08:22:14.526Z,94.50
2022-07-26T08:23:47.327Z,94.30
2022-07-26T08:25:21.690Z,94.30
2022-07-26T08:26:54.454Z,94.50
2022-07-26T08:30:21.361Z,94.00
2022-07-26T08:31:54.183Z,93.30
2022-07-26T08:33:27.103Z,93.30
2022-07-26T08:35:16.806Z,94.40
2022-07-26T08:37:15.406Z,93.40
2022-07-26T08:38:47.521Z,93.20
2022-07-26T08:40:22.447Z,93.90
2022-07-26T08:41:55.243Z,92.90
2022-07-26T08:43:28.119Z,93.80
2022-07-26T08:45:01.261Z,92.50
2022-07-26T08:46:36.420Z,92.20
2022-07-26T08:48:18.210Z,92.60
2022-07-26T08:49:51.509Z,92.30
2022-07-26T08:51:25.834Z,92.30
2022-07-26T08:53:01.962Z,93.30
2022-07-26T08:54:34.836Z,92.00
2022-07-26T08:56:08.263Z,92.30
2022-07-26T08:57:41.100Z,92.60
2022-07-26T08:59:20.237Z,92.00
2022-07-26T09:01:05.350Z,92.70
2022-07-26T09:02:41.925Z,92.40
2022-07-26T09:04:43.888Z,92.00
2022-07-26T09:06:17.548Z,91.60
2022-07-26T09:07:50.317Z,91.70
2022-07-26T09:09:23.120Z,92.50
2022-07-26T09:10:56.385Z,93.00
2022-07-26T09:12:32.488Z,92.60
2022-07-26T09:14:08.202Z,92.00
2022-07-26T09:15:41.183Z,91.60
2022-07-26T09:17:17.292Z,91.40
2022-07-26T09:18:50.111Z,91.80
2022-07-26T09:20:27.848Z,91.70
2022-07-26T09:22:10.409Z,92.40
2022-07-26T09:23:43.472Z,92.20
2022-07-26T09:25:22.400Z,92.00
2022-07-26T09:26:58.458Z,91.20
2022-07-26T09:28:32.864Z,92.30
2022-07-26T09:30:10.788Z,91.30
2022-07-26T09:31:44.463Z,90.30
2022-07-26T09:33:17.255Z,90.40
2022-07-26T09:34:58.337Z,90.40
2022-07-26T09:36:32.714Z,90.60
2022-07-26T09:38:14.217Z,90.90
2022-07-26T09:39:58.634Z,90.60
2022-07-26T09:41:32.908Z,91.00
2022-07-26T09:43:07.367Z,91.50
2022-07-26T09:44:47.894Z,91.30
2022-07-26T09:46:21.761Z,90.70
2022-07-26T09:47:55.089Z,90.40
2022-07-26T09:49:40.878Z,91.30
2022-07-26T09:51:13.925Z,90.50
2022-07-26T09:53:00.748Z,90.40
2022-07-26T09:54:35.223Z,90.10
2022-07-26T09:56:08.959Z,90.60
2022-07-26T09:57:41.812Z,91.50
2022-07-26T09:59:15.555Z,91.00
2022-07-26T10:00:49.732Z,91.30
2022-07-26T10:02:22.467Z,91.40
2022-07-26T10:03:55.253Z,91.50
2022-07-26T10:05:28.351Z,91.70
2022-07-26T10:07:02.808Z,90.50
2022-07-26T10:08:36.603Z,91.10
2022-07-26T10:10:15.133Z,90.70
2022-07-26T10:11:53.343Z,91.00
2022-07-26T10:13:28.120Z,90.70
2022-07-26T10:15:00.908Z,91.10
2022-07-26T10:16:34.988Z,90.50
2022-07-26T10:18:16.571Z,90.90
2022-07-26T10:19:49.703Z,90.40
2022-07-26T10:21:25.072Z,90.60
2022-07-26T10:22:56.879Z,90.60
2022-07-26T10:24:29.680Z,90.50
2022-07-26T10:26:02.880Z,90.50
2022-07-26T10:27:39.155Z,90.20
2022-07-26T10:29:27.088Z,90.00
2022-07-26T10:31:39.725Z,90.00
2022-07-26T10:33:17.587Z,89.80
2022-07-26T10:34:50.484Z,88.80
2022-07-26T10:36:25.507Z,89.20
2022-07-26T10:38:02.404Z,88.30
2022-07-26T10:39:35.311Z,89.50
2022-07-26T10:41:08.366Z,90.00
2022-07-26T10:42:45.482Z,89.20
2022-07-26T10:44:24.598Z,90.00
2022-07-26T10:46:24.988Z,89.10
2022-07-26T10:48:17.131Z,89.70
2022-07-26T10:49:57.722Z,90.70
2022-07-26T10:51:34.031Z,90.20
2022-07-26T10:53:06.993Z,90.50
2022-07-26T10:55:08.029Z,90.60
2022-07-26T10:56:41.448Z,90.40
2022-07-26T10:58:14.272Z,90.10
2022-07-26T10:59:55.936Z,89.70
2022-07-26T11:01:34.437Z,90.00
2022-07-26T11:03:07.434Z,89.00
2022-07-26T11:04:42.563Z,89.40
2022-07-26T11:06:17.647Z,90.00
2022-07-26T11:07:53.245Z,90.40
2022-07-26T11:09:34.791Z,90.50
2022-07-26T11:11:07.560Z,90.70
2022-07-26T11:12:40.385Z,90.80
2022-07-26T11:14:15.452Z,90.20
2022-07-26T11:15:51.330Z,90.20
2022-07-26T11:17:25.139Z,90.50
2022-07-26T11:18:58.049Z,90.90
2022-07-26T11:20:31.380Z,90.90
2022-07-26T11:22:04.192Z,91.10
2022-07-26T11:23:38.487Z,90.80
2022-07-26T11:25:11.232Z,90.40
2022-07-26T11:26:45.360Z,90.20
2022-07-26T11:28:17.173Z,90.10
2022-07-26T11:29:50.355Z,90.30
2022-07-26T11:31:50.348Z,90.70
2022-07-26T11:33:22.443Z,90.50
2022-07-26T11:34:59.568Z,90.40
2022-07-26T11:36:35.236Z,90.30
2022-07-26T11:38:12.151Z,90.60
2022-07-26T11:39:45.280Z,90.50
2022-07-26T11:41:21.167Z,90.50
2022-07-26T11:43:07.516Z,90.20
2022-07-26T11:44:44.902Z,90.30
2022-07-26T11:46:17.936Z,90.30
2022-07-26T11:47:50.771Z,89.80
2022-07-26T11:49:41.424Z,90.00
2022-07-26T11:51:19.855Z,89.50
2022-07-26T11:52:54.120Z,90.30
2022-07-26T11:54:28.777Z,90.00
2022-07-26T11:56:11.672Z,90.30
2022-07-26T11:57:44.474Z,90.20
2022-07-26T11:59:17.448Z,90.20
2022-07-26T12:00:50.561Z,90.10
2022-07-26T12:02:23.715Z,90.00
2022-07-26T12:03:57.582Z,89.90
2022-07-26T12:05:30.651Z,90.00
2022-07-26T12:07:10.208Z,90.10
2022-07-26T12:08:46.355Z,90.40
2022-07-26T12:10:20.136Z,90.50
2022-07-26T12:11:53.978Z,90.10
2022-07-26T12:13:26.853Z,89.70
2022-07-26T12:15:02.417Z,89.00
2022-07-26T12:16:43.271Z,88.90
2022-07-26T12:18:24.346Z,88.80
2022-07-26T12:19:58.668Z,87.80
2022-07-26T12:21:43.566Z,89.40
2022-07-26T12:23:16.364Z,89.50
2022-07-26T12:24:58.588Z,89.80
2022-07-26T12:26:30.690Z,90.00
2022-07-26T12:28:03.528Z,90.20
2022-07-26T12:29:36.403Z,90.00
2022-07-26T12:31:23.614Z,90.10
2022-07-26T12:33:03.025Z,89.50
2022-07-26T12:34:39.927Z,89.40
2022-07-26T12:36:28.312Z,89.50
2022-07-26T12:38:02.508Z,89.60
2022-07-26T12:39:35.387Z,89.70
2022-07-26T12:41:10.629Z,89.50
2022-07-26T12:43:00.754Z,89.00
2022-07-26T12:44:34.156Z,89.20
2022-07-26T12:46:07.370Z,89.40
2022-07-26T12:47:44.540Z,89.60
2022-07-26T12:49:17.758Z,89.50
2022-07-26T12:50:50.584Z,88.60
2022-07-26T12:52:24.474Z,88.90
2022-07-26T12:53:57.285Z,88.30
2022-07-26T12:55:30.231Z,88.10
2022-07-26T12:57:04.561Z,87.70
2022-07-26T12:58:37.318Z,88.30
2022-07-26T13:00:11.394Z,88.20
2022-07-26T13:01:44.258Z,87.80
2022-07-26T13:03:17.074Z,87.80
2022-07-26T13:04:50.491Z,87.80
2022-07-26T13:06:23.629Z,87.70
2022-07-26T13:07:56.494Z,86.90
2022-07-26T13:09:29.343Z,87.50
2022-07-26T13:11:02.174Z,87.20
2022-07-26T13:12:36.872Z,87.30
2022-07-26T13:14:10.012Z,86.60
2022-07-26T13:15:47.661Z,86.60
2022-07-26T13:17:20.574Z,86.60
2022-07-26T13:18:53.409Z,87.90
2022-07-26T13:20:26.159Z,86.40
2022-07-26T13:22:00.601Z,86.20
2022-07-26T13:23:35.777Z,86.00
2022-07-26T13:25:09.315Z,86.70
2022-07-26T13:26:43.764Z,87.00
2022-07-26T13:28:19.388Z,88.50
2022-07-26T13:29:52.135Z,89.60
2022-07-26T13:31:25.051Z,89.90
2022-07-26T13:32:57.852Z,89.60
2022-07-26T13:34:34.868Z,90.00
2022-07-26T13:36:08.103Z,88.80
2022-07-26T13:37:41.033Z,89.40
2022-07-26T13:39:13.893Z,89.00
2022-07-26T13:40:46.735Z,88.90
2022-07-26T13:42:19.531Z,89.60
2022-07-26T13:43:54.004Z,89.10
2022-07-26T13:45:29.148Z,89.00
2022-07-26T13:47:02.562Z,89.00
2022-07-26T13:48:35.517Z,89.20
2022-07-26T13:50:09.588Z,89.40
2022-07-26T13:52:01.157Z,89.40
2022-07-26T13:53:34.004Z,89.00
2022-07-26T13:55:07.659Z,89.40
2022-07-26T13:56:40.486Z,88.70
2022-07-26T13:58:13.368Z,89.50
2022-07-26T13:59:47.464Z,90.00
2022-07-26T14:01:20.258Z,89.60
2022-07-26T14:03:13.084Z,89.30
2022-07-26T14:04:45.928Z,89.40
2022-07-26T14:06:19.243Z,89.60
2022-07-26T14:07:52.220Z,89.30
2022-07-26T14:09:25.571Z,89.40
2022-07-26T14:10:58.419Z,89.50
2022-07-26T14:12:31.336Z,89.30
2022-07-26T14:14:04.563Z,89.20
2022-07-26T14:15:38.967Z,89.00
2022-07-26T14:17:11.780Z,89.30
2022-07-26T14:18:44.604Z,89.20
2022-07-26T14:20:17.745Z,89.70
2022-07-26T14:21:58.848Z,90.00
2022-07-26T14:23:33.067Z,90.20
2022-07-26T14:25:07.150Z,90.20
2022-07-26T14:26:39.907Z,90.10
2022-07-26T14:28:12.664Z,90.10
2022-07-26T14:29:46.131Z,89.60
2022-07-26T14:31:20.486Z,89.20
2022-07-26T14:32:53.303Z,89.10
2022-07-26T14:34:28.522Z,88.20
2022-07-26T14:36:04.567Z,88.70
2022-07-26T14:37:43.810Z,89.20
2022-07-26T14:39:18.306Z,89.70
2022-07-26T14:40:51.056Z,89.60
2022-07-26T14:42:24.879Z,89.30
2022-07-26T14:43:57.704Z,88.70
2022-07-26T14:45:31.028Z,88.70
2022-07-26T14:47:06.968Z,89.30
2022-07-26T14:48:53.988Z,89.70
2022-07-26T14:50:27.588Z,90.30
2022-07-26T14:52:01.440Z,89.50
2022-07-26T14:53:34.320Z,89.50
2022-07-26T14:55:08.206Z,89.40
2022-07-26T14:56:40.987Z,89.80
2022-07-26T14:58:13.812Z,90.10
2022-07-26T14:59:46.538Z,90.10
2022-07-26T15:01:19.454Z,90.10
2022-07-26T15:02:53.734Z,89.70
2022-07-26T15:04:26.610Z,90.00
2022-07-26T15:05:59.409Z,90.00
2022-07-26T15:07:32.131Z,90.00
2022-07-26T15:09:05.225Z,90.00
2022-07-26T15:10:38.042Z,90.10
2022-07-26T15:12:10.973Z,90.10
2022-07-26T15:13:43.848Z,90.20
2022-07-26T15:15:16.616Z,90.20
2022-07-26T15:16:49.444Z,90.00
2022-07-26T15:18:23.797Z,90.00
2022-07-26T15:19:57.071Z,89.90
2022-07-26T15:21:29.869Z,89.90
2022-07-26T15:23:02.635Z,89.90
2022-07-26T15:24:39.761Z,89.70
2022-07-26T15:26:12.832Z,89.70
2022-07-26T15:27:45.608Z,89.60
2022-07-26T15:29:18.371Z,89.70
2022-07-26T15:30:51.552Z,89.60
2022-07-26T15:32:24.419Z,89.40
2022-07-26T15:33:58.569Z,88.90
2022-07-26T15:35:32.736Z,89.30
2022-07-26T15:37:05.547Z,89.80
2022-07-26T15:38:40.028Z,89.80
2022-07-26T15:40:13.993Z,89.50
2022-07-26T15:41:48.254Z,89.30
2022-07-26T15:43:23.938Z,89.70
2022-07-26T15:45:16.441Z,90.00
2022-07-26T15:46:50.554Z,89.70
2022-07-26T15:48:23.496Z,89.70
2022-07-26T15:49:57.627Z,89.80
2022-07-26T15:51:30.388Z,89.50
2022-07-26T15:53:03.232Z,89.50
2022-07-26T15:54:36.001Z,89.80
2022-07-26T15:56:08.904Z,89.80
2022-07-26T15:57:42.306Z,89.70
2022-07-26T15:59:15.434Z,89.40
2022-07-26T16:00:49.166Z,89.00
2022-07-26T16:02:22.009Z,89.40
2022-07-26T16:03:55.023Z,90.10
2022-07-26T16:05:29.159Z,90.00
2022-07-26T16:07:01.950Z,90.00
2022-07-26T16:08:43.128Z,90.30
2022-07-26T16:10:27.712Z,90.40
2022-07-26T16:12:05.523Z,90.60
2022-07-26T16:13:38.877Z,90.60
2022-07-26T16:15:12.869Z,90.60
2022-07-26T16:16:46.047Z,90.50
2022-07-26T16:18:18.900Z,90.60
2022-07-26T16:19:51.799Z,90.50
2022-07-26T16:21:26.244Z,90.50
2022-07-26T16:22:59.872Z,90.80
2022-07-26T16:24:33.661Z,90.70
2022-07-26T16:26:08.300Z,90.90
2022-07-26T16:27:42.551Z,90.80
2022-07-26T16:29:15.666Z,90.80
2022-07-26T16:30:48.507Z,90.40
2022-07-26T16:32:21.967Z,90.60
2022-07-26T16:33:54.759Z,90.60
2022-07-26T16:35:27.639Z,90.60
2022-07-26T16:37:01.771Z,90.60
2022-07-26T16:38:35.765Z,90.80
2022-07-26T16:40:10.136Z,90.60
2022-07-26T16:41:42.923Z,90.20
2022-07-26T16:43:15.742Z,90.40
2022-07-26T16:44:48.588Z,90.20
2022-07-26T16:46:21.421Z,90.20
2022-07-26T16:47:59.596Z,90.60
2022-07-26T16:49:32.973Z,90.70
2022-07-26T16:51:06.066Z,91.00
2022-07-26T16:52:40.148Z,91.00
2022-07-26T16:54:12.965Z,91.20
2022-07-26T16:55:46.993Z,91.20
2022-07-26T16:57:19.739Z,91.20
2022-07-26T16:58:52.827Z,91.10
2022-07-26T17:00:25.783Z,91.20
2022-07-26T17:02:01.707Z,91.20
2022-07-26T17:03:35.930Z,91.10
2022-07-26T17:05:09.826Z,91.10
2022-07-26T17:06:56.506Z,91.00
2022-07-26T17:08:37.776Z,91.00
2022-07-26T17:10:11.452Z,90.80
2022-07-26T17:11:44.433Z,90.70
2022-07-26T17:13:17.212Z,90.70
2022-07-26T17:14:50.011Z,90.80
2022-07-26T17:16:24.614Z,90.80
2022-07-26T17:17:57.699Z,90.90
2022-07-26T17:19:30.471Z,91.00
2022-07-26T17:21:03.288Z,91.00
2022-07-26T17:22:36.035Z,91.00
2022-07-26T17:24:10.655Z,91.10
2022-07-26T17:25:43.547Z,91.00
2022-07-26T17:27:16.934Z,91.00
2022-07-26T17:28:49.735Z,91.10
2022-07-26T17:30:22.665Z,91.10
2022-07-26T17:31:55.920Z,91.20
2022-07-26T17:33:28.825Z,91.40
2022-07-26T17:35:01.725Z,91.60
2022-07-26T17:36:35.762Z,91.80
2022-07-26T17:38:10.106Z,91.90
2022-07-26T17:39:52.792Z,92.00
2022-07-26T17:41:32.696Z,92.00
2022-07-26T17:43:05.957Z,92.20
2022-07-26T17:44:40.309Z,92.50
2022-07-26T17:46:13.329Z,92.50
2022-07-26T17:47:46.728Z,92.50
2022-07-26T17:49:19.600Z,92.50
2022-07-26T17:50:52.449Z,92.70
2022-07-26T17:52:25.243Z,92.70
2022-07-26T17:53:58.020Z,92.80
2022-07-26T17:55:32.203Z,92.70
2022-07-26T17:57:06.092Z,92.80
2022-07-26T17:58:38.956Z,92.90
2022-07-26T18:00:12.817Z,92.70
2022-07-26T18:01:53.580Z,92.80
2022-07-26T18:03:26.690Z,92.80
2022-07-26T18:04:59.657Z,92.80
2022-07-26T18:06:32.537Z,92.70
2022-07-26T18:08:05.829Z,92.80
2022-07-26T18:09:38.756Z,92.80
2022-07-26T18:11:13.063Z,92.80
2022-07-26T18:12:45.887Z,93.20
2022-07-26T18:14:18.721Z,92.80
2022-07-26T18:15:51.890Z,92.90
2022-07-26T18:17:24.957Z,92.90
2022-07-26T18:18:57.779Z,92.90
2022-07-26T18:20:30.671Z,93.00
2022-07-26T18:22:06.170Z,93.00
2022-07-26T18:23:49.691Z,92.90
2022-07-26T18:25:32.085Z,92.90
2022-07-26T18:27:06.337Z,92.80
2022-07-26T18:28:39.202Z,92.80
2022-07-26T18:30:14.267Z,92.90
2022-07-26T18:31:47.090Z,92.80
2022-07-26T18:33:20.011Z,92.90
2022-07-26T18:34:53.055Z,92.90
2022-07-26T18:36:26.103Z,92.90
2022-07-26T18:37:58.897Z,92.90
2022-07-26T18:39:32.928Z,92.90
2022-07-26T18:41:06.320Z,92.90
2022-07-26T18:42:40.841Z,92.90
2022-07-26T18:44:13.612Z,93.00
2022-07-26T18:45:46.854Z,93.00
2022-07-26T18:47:19.660Z,93.00
2022-07-26T18:48:52.528Z,93.00
2022-07-26T18:50:27.261Z,93.00
2022-07-26T18:52:08.742Z,92.90
2022-07-26T18:53:41.844Z,93.10
2022-07-26T18:55:15.248Z,93.10
2022-07-26T18:56:48.004Z,93.20
2022-07-26T18:58:22.164Z,93.10
2022-07-26T19:00:00.262Z,93.10
2022-07-26T19:01:33.132Z,93.20
2022-07-26T19:03:05.976Z,93.20
2022-07-26T19:04:40.049Z,93.20
2022-07-26T19:06:13.057Z,93.20
2022-07-26T19:07:46.671Z,93.30
2022-07-26T19:09:19.890Z,93.20
2022-07-26T19:10:52.641Z,93.30
2022-07-26T19:12:25.477Z,93.30
2022-07-26T19:13:59.793Z,93.40
2022-07-26T19:15:32.694Z,93.40
2022-07-26T19:17:05.789Z,93.40
2022-07-26T19:18:38.549Z,93.50
2022-07-26T19:20:12.316Z,93.40
2022-07-26T19:21:47.112Z,93.50
2022-07-26T19:23:19.974Z,93.60
2022-07-26T19:24:53.419Z,93.60
2022-07-26T19:26:27.271Z,93.40
2022-07-26T19:28:01.654Z,93.50
2022-07-26T19:29:36.013Z,93.50
2022-07-26T19:31:08.873Z,93.60
2022-07-26T19:32:41.711Z,93.50
2022-07-26T19:34:15.646Z,93.50
2022-07-26T19:35:48.455Z,93.50
2022-07-26T19:37:22.548Z,93.40
2022-07-26T19:38:56.502Z,93.50
2022-07-26T19:40:30.640Z,93.40
2022-07-26T19:42:03.484Z,93.60
2022-07-26T19:43:36.245Z,93.60
2022-07-26T19:45:11.627Z,93.40
2022-07-26T19:46:44.439Z,93.70
2022-07-26T19:48:17.232Z,93.60
2022-07-26T19:49:49.980Z,93.80
2022-07-26T19:51:22.783Z,93.60
2022-07-26T19:52:55.640Z,93.70
2022-07-26T19:54:28.517Z,93.80
2022-07-26T19:56:01.459Z,93.70
2022-07-26T19:57:34.575Z,93.70
2022-07-26T19:59:07.451Z,93.80
2022-07-26T20:00:41.835Z,93.60
2022-07-26T20:02:14.958Z,93.60
2022-07-26T20:03:47.828Z,93.60
2022-07-26T20:05:20.580Z,93.70
2022-07-26T20:06:53.580Z,93.70
2022-07-26T20:08:26.371Z,94.00
2022-07-26T20:09:59.171Z,94.00
2022-07-26T20:11:33.820Z,93.80
2022-07-26T20:13:06.749Z,94.00
2022-07-26T20:14:39.595Z,94.10
2022-07-26T20:16:13.693Z,94.10
2022-07-26T20:17:46.510Z,94.10
2022-07-26T20:19:19.335Z,94.10
2022-07-26T20:20:53.267Z,94.20
2022-07-26T20:22:26.026Z,94.30